Hatfield, MA (01038)

5:28 PM EDT on April 21, 2015 (GMT -0400)
North Hatfield | | Change Station
CLOSE
Current Station
Personal Weather Station
Location: Hatfield, MA
Elevation: 141 ft
Nearby Weather Stations

Elev 141 ft 42.42 °N, 72.59 °W | Updated 14 seconds ago

Partly Cloudy
Partly Cloudy
63.1 °F
Feels Like 63.1 °F
N
10.7
Wind Variable Wind from WSW
Gusts 12.3 mph

Today
High -- | Low -- °F
--% Chance of Precip.
Yesterday
High -- | Low -- °F
Precip. -- in
6:00 AM 7:38 PM
Waxing Crescent, 13% visible
Pressure 29.63 in
Visibility 10.0 miles
Clouds Scattered Clouds 6500 ft
Dew Point 36 °F
Humidity 36%
Rainfall 0.50 in
Snow Depth Not available.
UV 1.0 out of 12
Pollen 6.20 out of 12
Air Quality Not available.
Flu Activity Widespread
METAR KCEF 212058Z AUTO 27008KT 10SM SCT065 17/02 A2961 RMK AO2 SLP033 T01710023 55001

More Conditions Fewer Conditions

Pressure 29.63 in
Visibility 10.0 miles
Clouds Scattered Clouds 6500 ft
Dew Point 36 °F
Humidity 36%
Rainfall 0.50 in
Snow Depth Not available.
UV 1.0 out of 12
Pollen 6.20 out of 12
Air Quality Not available.
Flu Activity Widespread
METAR KCEF 212058Z AUTO 27008KT 10SM SCT065 17/02 A2961 RMK AO2 SLP033 T01710023 55001

More Conditions Fewer Conditions

10-Day Weather Forecast

Almanac

Astronomy

Apr. 21, 2015 Rise Set
Actual Time
Civil Twilight
Nautical Twilight
Astronomical Twilight
Moon
Length of Visible Light
Length of Day
Tomorrow will be .
, % of the Moon is Illuminated

Today's Extremes

State Highs State Lows

Community

WunderPhotos

Upload Photos

1,815,549 photos uploaded!

WunderBlogs® & News

Nearby

Air Quality

  Air Quality AQ Index Pollutant
Not available.

Snow Depth

Station Depth Elevation

Earthquake Activity

City Distance Mag. Time & Date
Minimum magnitude displayed is 2.5.

Coastal Water Temperatures

Place Temperature

Stations

Nearby Weather Stations

Station Location Temp. Windchill Dew Point Humidity Wind Precip. Elev Updated Type